Time;durP1;ratioP1;P1;durP2;ratioP2;P2;SDS_P1;SDS_P2;PMS_P1;PMS_P2;Temp;Humidity;BMP_temperature;BMP_pressure;BME280_temperature;BME280_humidity;BME280_pressure;Samples;Min_cycle;Max_cycle;Signal;HPM_P1;HPM_P2
2022/06/09 00:00:01;;;;;;;11.05;4.72;;;17.20;99.90;;;;;;2094045;28;20052;-69
2022/06/09 00:01:11;;;;;;;10.40;4.75;;;17.30;99.90;;;;;;2099020;28;20065;-69
2022/06/09 00:02:11;;;;;;;11.97;5.37;;;17.30;99.90;;;;;;2098878;28;20040;-69
2022/06/09 00:03:34;;;;;;;10.57;4.60;;;17.20;99.90;;;;;;2097213;28;20262;-69
2022/06/09 00:04:38;;;;;;;10.25;4.72;;;17.20;99.90;;;;;;2103301;28;20085;-69
2022/06/09 00:05:40;;;;;;;15.65;4.63;;;17.20;99.90;;;;;;2100661;28;20032;-69
2022/06/09 00:06:46;;;;;;;10.15;4.55;;;17.20;99.90;;;;;;2094289;28;20024;-69
2022/06/09 00:07:48;;;;;;;11.07;3.95;;;17.20;99.90;;;;;;2096131;28;20051;-69
2022/06/09 00:08:51;;;;;;;10.43;4.30;;;17.20;99.90;;;;;;2096729;28;20021;-69
2022/06/09 00:10:05;;;;;;;11.45;4.43;;;17.20;99.90;;;;;;2097024;28;20522;-69
2022/06/09 00:11:08;;;;;;;10.82;4.35;;;17.10;99.90;;;;;;2094814;28;20059;-69
2022/06/09 00:12:09;;;;;;;15.15;4.72;;;17.20;99.90;;;;;;2097442;28;20012;-69
2022/06/09 00:13:10;;;;;;;11.27;4.40;;;17.20;99.90;;;;;;2092381;28;20526;-69
2022/06/09 00:14:11;;;;;;;14.07;5.00;;;17.20;99.90;;;;;;2096058;28;20020;-69
2022/06/09 00:15:13;;;;;;;9.77;4.88;;;17.20;99.90;;;;;;2094228;28;20013;-69
2022/06/09 00:16:14;;;;;;;11.45;4.38;;;17.20;99.90;;;;;;2093881;28;20074;-69
2022/06/09 00:17:15;;;;;;;11.88;4.30;;;17.20;99.90;;;;;;2096471;28;20021;-69
2022/06/09 00:18:16;;;;;;;9.73;4.20;;;17.20;99.90;;;;;;2095452;28;20024;-69
2022/06/09 00:19:18;;;;;;;10.32;4.45;;;17.10;99.90;;;;;;2093740;28;20073;-69
2022/06/09 00:20:18;;;;;;;10.07;4.45;;;17.10;99.90;;;;;;2092703;28;20469;-69
2022/06/09 00:21:21;;;;;;;10.40;4.70;;;17.10;99.90;;;;;;2095759;28;20421;-69
2022/06/09 00:22:22;;;;;;;11.02;4.60;;;17.10;99.90;;;;;;2096744;28;20020;-69
2022/06/09 00:23:22;;;;;;;10.75;4.60;;;17.10;99.90;;;;;;2095436;28;20033;-69
2022/06/09 00:24:23;;;;;;;10.55;4.53;;;17.10;99.90;;;;;;2096028;28;20487;-69
2022/06/09 00:25:24;;;;;;;10.32;4.60;;;17.10;99.90;;;;;;2097456;28;20114;-69
2022/06/09 00:26:24;;;;;;;10.45;4.15;;;17.10;99.90;;;;;;2095254;28;20699;-69
2022/06/09 00:27:25;;;;;;;15.32;4.60;;;17.10;99.90;;;;;;2094885;28;20032;-69
2022/06/09 00:28:27;;;;;;;8.70;4.47;;;17.10;99.90;;;;;;2097283;28;20050;-69
2022/06/09 00:29:27;;;;;;;12.32;4.93;;;17.10;99.90;;;;;;2096370;28;20029;-69
2022/06/09 00:30:28;;;;;;;10.63;4.57;;;17.10;99.90;;;;;;2096299;28;20036;-69
2022/06/09 00:31:29;;;;;;;10.38;4.30;;;17.10;99.90;;;;;;2094653;28;20025;-69
2022/06/09 00:32:29;;;;;;;9.98;4.00;;;17.10;99.90;;;;;;2094410;28;20396;-69
2022/06/09 00:33:30;;;;;;;12.00;4.78;;;17.00;99.90;;;;;;2097611;28;20040;-69
2022/06/09 00:34:31;;;;;;;11.63;4.60;;;17.00;99.90;;;;;;2095521;28;20097;-69
2022/06/09 00:35:32;;;;;;;11.30;4.90;;;17.00;99.90;;;;;;2094527;28;20021;-69
2022/06/09 00:36:33;;;;;;;9.27;4.15;;;17.00;99.90;;;;;;2097211;28;20020;-69
2022/06/09 00:37:33;;;;;;;10.93;4.40;;;17.00;99.90;;;;;;2094080;28;20025;-69
2022/06/09 00:38:34;;;;;;;9.82;3.95;;;17.00;99.90;;;;;;2095207;28;20025;-69
2022/06/09 00:39:35;;;;;;;12.95;4.97;;;17.00;99.90;;;;;;2095769;28;20044;-70
2022/06/09 00:40:35;;;;;;;10.52;4.45;;;17.00;99.90;;;;;;2094964;28;20018;-70
2022/06/09 00:41:38;;;;;;;11.15;4.25;;;17.00;99.90;;;;;;2096306;28;20112;-69
2022/06/09 00:42:39;;;;;;;8.60;4.35;;;17.00;99.90;;;;;;2095564;28;20468;-69
2022/06/09 00:43:44;;;;;;;10.18;4.38;;;17.00;99.90;;;;;;2096059;28;20029;-69
2022/06/09 00:44:45;;;;;;;10.35;4.90;;;17.00;99.90;;;;;;2095862;28;20606;-69
2022/06/09 00:45:52;;;;;;;10.73;4.00;;;16.90;99.90;;;;;;2094632;28;20020;-69
2022/06/09 00:47:02;;;;;;;11.82;4.65;;;16.90;99.90;;;;;;2095539;28;20023;-69
2022/06/09 00:48:21;;;;;;;13.13;4.40;;;16.90;99.90;;;;;;2096108;28;20047;-69
2022/06/09 00:49:32;;;;;;;8.68;3.63;;;16.90;99.90;;;;;;2096332;28;20025;-69
2022/06/09 00:50:36;;;;;;;7.95;3.60;;;16.80;99.90;;;;;;2093659;28;20370;-69
2022/06/09 00:51:42;;;;;;;12.57;3.40;;;16.80;99.90;;;;;;2095812;28;20485;-69
2022/06/09 00:52:53;;;;;;;10.38;4.00;;;16.80;99.90;;;;;;2096234;28;20029;-69
2022/06/09 00:53:59;;;;;;;10.75;3.72;;;16.80;99.90;;;;;;2093686;28;20092;-69
2022/06/09 00:55:05;;;;;;;13.18;4.82;;;16.80;99.90;;;;;;2095584;28;20028;-69
2022/06/09 00:56:07;;;;;;;13.07;4.50;;;16.80;99.90;;;;;;2095850;28;20092;-69
2022/06/09 00:57:11;;;;;;;8.80;4.30;;;16.80;99.90;;;;;;2094681;28;20547;-69
2022/06/09 00:58:17;;;;;;;13.38;4.22;;;16.80;99.90;;;;;;2096724;28;20024;-69
2022/06/09 00:59:21;;;;;;;10.82;4.55;;;16.80;99.90;;;;;;2097192;28;20388;-69
2022/06/09 01:00:27;;;;;;;10.45;4.45;;;16.90;99.90;;;;;;2092379;28;20074;-69
2022/06/09 01:01:28;;;;;;;9.93;4.10;;;16.80;99.90;;;;;;2094911;28;20036;-69
2022/06/09 01:02:29;;;;;;;11.88;4.75;;;16.80;99.90;;;;;;2096391;28;20055;-69
2022/06/09 01:03:42;;;;;;;10.32;4.30;;;16.90;99.90;;;;;;2093179;28;20115;-69
2022/06/09 01:04:44;;;;;;;8.02;3.90;;;16.90;99.90;;;;;;2097060;28;20016;-69
2022/06/09 01:05:47;;;;;;;13.23;4.75;;;16.90;99.90;;;;;;2093647;28;20021;-69
2022/06/09 01:06:55;;;;;;;13.15;4.45;;;16.90;99.90;;;;;;2098239;28;20162;-69
2022/06/09 01:08:00;;;;;;;8.70;4.03;;;16.90;99.90;;;;;;2094316;28;20024;-69
2022/06/09 01:09:11;;;;;;;11.00;4.30;;;16.80;99.90;;;;;;2089685;28;20062;-69
2022/06/09 01:10:12;;;;;;;8.70;3.70;;;16.90;99.90;;;;;;2093803;28;20457;-69
2022/06/09 01:11:12;;;;;;;12.90;4.32;;;16.90;99.90;;;;;;2094582;28;20090;-69
2022/06/09 01:12:42;;;;;;;8.38;3.65;;;16.90;99.90;;;;;;2093198;28;20100;-69
2022/06/09 01:13:43;;;;;;;15.23;4.50;;;16.90;99.90;;;;;;2095010;28;20020;-69
2022/06/09 01:14:44;;;;;;;7.45;4.00;;;16.80;99.90;;;;;;2095712;28;20518;-69
2022/06/09 01:15:44;;;;;;;15.38;3.80;;;16.80;99.90;;;;;;2094574;28;20435;-69
2022/06/09 01:17:00;;;;;;;13.65;4.03;;;16.80;99.90;;;;;;2096008;28;20032;-69
2022/06/09 01:18:19;;;;;;;11.63;3.88;;;16.80;99.90;;;;;;2095481;28;20115;-69
2022/06/09 01:19:39;;;;;;;6.93;3.13;;;16.80;99.90;;;;;;2092620;28;20048;-69
2022/06/09 01:21:07;;;;;;;9.15;3.90;;;16.80;99.90;;;;;;2086473;28;20636;-69
2022/06/09 01:22:44;;;;;;;10.85;4.15;;;16.80;99.90;;;;;;2095425;28;20260;-69
2022/06/09 01:23:57;;;;;;;14.30;3.70;;;16.80;99.90;;;;;;2094759;28;20131;-69
2022/06/09 01:25:39;;;;;;;8.15;3.50;;;16.70;99.90;;;;;;2095917;28;20031;-69
2022/06/09 01:26:58;;;;;;;10.77;3.35;;;16.70;99.90;;;;;;2095946;28;20086;-69
2022/06/09 01:28:28;;;;;;;7.13;3.13;;;16.70;99.90;;;;;;2099019;28;20361;-69
2022/06/09 01:29:35;;;;;;;12.40;3.90;;;16.70;99.90;;;;;;2099688;28;20028;-69
2022/06/09 01:31:16;;;;;;;9.45;3.55;;;16.70;99.90;;;;;;2096801;28;20028;-69
2022/06/09 01:32:26;;;;;;;9.25;3.65;;;16.70;99.90;;;;;;2093954;28;20115;-69
2022/06/09 01:33:45;;;;;;;;;;;16.70;99.90;;;;;;2098067;28;20032;-69
2022/06/09 01:35:05;;;;;;;13.82;4.22;;;16.60;99.90;;;;;;2096560;28;19915;-69
2022/06/09 01:36:19;;;;;;;7.93;3.17;;;16.60;99.90;;;;;;2098280;28;20364;-69
2022/06/09 01:37:27;;;;;;;8.85;3.38;;;16.60;99.90;;;;;;2095479;28;20028;-69
2022/06/09 01:38:28;;;;;;;12.00;3.05;;;16.60;99.90;;;;;;2096374;28;20033;-69
2022/06/09 01:39:41;;;;;;;12.40;3.97;;;16.60;99.90;;;;;;2097807;28;20090;-69
2022/06/09 01:40:42;;;;;;;13.63;4.15;;;16.60;99.90;;;;;;2094497;28;20509;-69
2022/06/09 01:41:49;;;;;;;7.95;3.03;;;16.60;99.90;;;;;;2096198;28;20392;-69
2022/06/09 01:42:52;;;;;;;10.05;3.50;;;16.60;99.90;;;;;;2096728;28;20055;-69
2022/06/09 01:43:55;;;;;;;9.23;3.28;;;16.70;99.90;;;;;;2097434;28;20027;-69
2022/06/09 01:45:08;;;;;;;14.63;3.58;;;16.70;99.90;;;;;;2095798;28;20028;-69
2022/06/09 01:46:28;;;;;;;9.07;3.08;;;16.70;99.90;;;;;;2096956;28;20017;-69
2022/06/09 01:47:45;;;;;;;9.20;3.10;;;16.70;99.90;;;;;;2098659;28;20042;-69
2022/06/09 01:48:51;;;;;;;11.20;3.85;;;16.70;99.90;;;;;;2093296;28;20025;-69
2022/06/09 01:49:56;;;;;;;11.38;3.53;;;16.70;99.90;;;;;;2093977;28;20059;-69
2022/06/09 01:51:15;;;;;;;9.85;3.15;;;16.70;99.90;;;;;;2100022;28;20022;-69
2022/06/09 01:52:17;;;;;;;9.35;3.38;;;16.70;99.90;;;;;;2096390;28;20028;-69
2022/06/09 01:53:46;;;;;;;11.00;3.55;;;16.70;99.90;;;;;;2096215;28;20037;-69
2022/06/09 01:54:47;;;;;;;11.07;3.10;;;16.70;99.90;;;;;;2093789;28;20044;-70
2022/06/09 01:56:03;;;;;;;13.43;3.55;;;16.70;99.90;;;;;;2096278;28;20027;-71
2022/06/09 01:57:10;;;;;;;11.55;3.50;;;16.70;99.90;;;;;;2097623;28;20027;-71
2022/06/09 01:58:15;;;;;;;8.68;3.08;;;16.70;99.90;;;;;;2095006;28;20118;-71
2022/06/09 01:59:36;;;;;;;11.25;3.22;;;16.70;99.90;;;;;;2097183;28;20183;-71
2022/06/09 02:00:37;;;;;;;9.98;3.20;;;16.70;99.90;;;;;;2096131;28;20144;-71
2022/06/09 02:02:00;;;;;;;11.70;2.90;;;16.70;99.90;;;;;;2096618;28;20059;-71
2022/06/09 02:03:06;;;;;;;6.70;2.97;;;16.70;99.90;;;;;;2096250;28;20107;-71
2022/06/09 02:04:15;;;;;;;11.43;3.70;;;16.70;99.90;;;;;;2096607;28;20040;-68
2022/06/09 02:05:25;;;;;;;12.18;4.07;;;16.70;99.90;;;;;;2095855;28;20031;-70
2022/06/09 02:06:27;;;;;;;10.73;3.38;;;16.80;99.90;;;;;;2095981;28;20025;-71
2022/06/09 02:07:32;;;;;;;10.82;3.85;;;16.70;99.90;;;;;;2098336;28;20028;-71
2022/06/09 02:08:33;;;;;;;10.88;3.63;;;16.70;99.90;;;;;;2097266;28;20028;-71
2022/06/09 02:09:37;;;;;;;8.10;3.15;;;16.70;99.90;;;;;;2097919;28;20073;-71
2022/06/09 02:10:44;;;;;;;10.43;3.78;;;16.70;99.90;;;;;;2096959;28;20025;-71
2022/06/09 02:11:48;;;;;;;6.43;3.15;;;16.70;99.90;;;;;;2093072;28;20036;-71
2022/06/09 02:12:50;;;;;;;9.63;3.22;;;16.80;99.90;;;;;;2097955;28;20071;-71
2022/06/09 02:13:56;;;;;;;9.00;3.47;;;16.70;99.90;;;;;;2099190;28;20539;-71
2022/06/09 02:14:58;;;;;;;10.32;3.13;;;16.70;99.90;;;;;;2096492;28;20383;-70
2022/06/09 02:16:03;;;;;;;9.82;3.20;;;16.80;99.90;;;;;;2093412;28;20025;-71
2022/06/09 02:17:06;;;;;;;11.10;3.38;;;16.80;99.90;;;;;;2095400;28;20020;-71
2022/06/09 02:18:10;;;;;;;11.20;3.55;;;16.80;99.90;;;;;;2095669;28;20099;-71
2022/06/09 02:19:11;;;;;;;12.82;3.80;;;16.70;99.90;;;;;;2093768;28;20085;-71
2022/06/09 02:20:14;;;;;;;13.43;3.80;;;16.70;99.90;;;;;;2097085;28;20055;-71
2022/06/09 02:21:23;;;;;;;7.50;3.55;;;16.70;99.90;;;;;;2097572;28;20114;-71
2022/06/09 02:22:24;;;;;;;11.02;3.13;;;16.80;99.90;;;;;;2094005;28;20020;-71
2022/06/09 02:23:25;;;;;;;11.43;3.05;;;16.70;99.90;;;;;;2097733;28;20535;-69
2022/06/09 02:24:27;;;;;;;12.48;3.33;;;16.70;99.90;;;;;;2097390;28;20036;-71
2022/06/09 02:25:27;;;;;;;9.57;3.00;;;16.70;99.90;;;;;;2094891;28;20074;-71
2022/06/09 02:26:29;;;;;;;15.15;4.05;;;16.80;99.90;;;;;;2096720;28;20040;-69
2022/06/09 02:27:29;;;;;;;8.27;3.40;;;16.80;99.90;;;;;;2093419;28;20021;-71
2022/06/09 02:28:31;;;;;;;12.13;2.80;;;16.80;99.90;;;;;;2095576;28;20025;-71
2022/06/09 02:29:33;;;;;;;11.30;3.50;;;16.80;99.90;;;;;;2096026;28;20424;-71
2022/06/09 02:30:35;;;;;;;9.57;3.67;;;16.80;99.90;;;;;;2096538;28;20024;-71
2022/06/09 02:31:35;;;;;;;10.40;3.60;;;16.80;99.90;;;;;;2096218;28;20052;-71
2022/06/09 02:32:36;;;;;;;9.05;3.35;;;16.80;99.90;;;;;;2094841;28;20013;-69
2022/06/09 02:33:37;;;;;;;11.85;3.40;;;16.80;99.90;;;;;;2095729;28;20415;-70
2022/06/09 02:34:38;;;;;;;10.90;3.42;;;16.80;99.90;;;;;;2096958;28;20029;-68
2022/06/09 02:35:39;;;;;;;14.25;4.25;;;16.80;99.90;;;;;;2096715;28;20112;-70
2022/06/09 02:36:39;;;;;;;11.18;3.63;;;16.80;99.90;;;;;;2096192;28;20468;-71
2022/06/09 02:37:40;;;;;;;9.20;3.35;;;16.80;99.90;;;;;;2097699;28;20431;-71
2022/06/09 02:38:41;;;;;;;9.27;3.13;;;16.80;99.90;;;;;;2095992;28;20028;-71
2022/06/09 02:39:42;;;;;;;11.55;3.47;;;16.80;99.90;;;;;;2097815;28;20051;-71
2022/06/09 02:40:42;;;;;;;11.73;3.72;;;16.80;99.90;;;;;;2094790;28;20691;-71
2022/06/09 02:41:43;;;;;;;13.05;3.28;;;16.80;99.90;;;;;;2098887;28;20021;-71
2022/06/09 02:42:44;;;;;;;8.85;3.42;;;16.80;99.90;;;;;;2097181;28;20472;-71
2022/06/09 02:43:45;;;;;;;13.55;3.85;;;16.80;99.90;;;;;;2096665;28;20035;-71
2022/06/09 02:44:46;;;;;;;11.68;3.20;;;16.90;99.90;;;;;;2094845;28;20552;-71
2022/06/09 02:45:47;;;;;;;12.88;3.67;;;16.90;99.90;;;;;;2096110;28;20048;-71
2022/06/09 02:46:47;;;;;;;11.05;3.35;;;16.90;99.90;;;;;;2095965;28;20028;-71
2022/06/09 02:47:48;;;;;;;12.23;3.58;;;16.90;99.90;;;;;;2097056;28;20111;-71
2022/06/09 02:48:49;;;;;;;12.35;3.10;;;16.80;99.90;;;;;;2097598;28;20098;-68
2022/06/09 02:49:50;;;;;;;11.70;3.03;;;16.80;99.90;;;;;;2098073;28;20079;-70
2022/06/09 02:50:52;;;;;;;11.98;3.85;;;16.90;99.90;;;;;;2095530;28;20099;-71
2022/06/09 02:51:54;;;;;;;12.20;3.28;;;16.90;99.90;;;;;;2096136;28;20036;-71
2022/06/09 02:52:54;;;;;;;8.98;3.10;;;16.80;99.90;;;;;;2096251;28;20465;-71
2022/06/09 02:53:57;;;;;;;14.30;3.53;;;16.80;99.90;;;;;;2097502;28;20422;-69
2022/06/09 02:54:57;;;;;;;12.70;3.45;;;16.80;99.90;;;;;;2094906;28;20579;-68
2022/06/09 02:55:58;;;;;;;10.00;3.53;;;16.80;99.90;;;;;;2096371;28;20426;-68
2022/06/09 02:56:58;;;;;;;11.55;3.75;;;16.80;99.90;;;;;;2096511;28;20025;-71
2022/06/09 02:57:59;;;;;;;10.63;3.40;;;16.80;99.90;;;;;;2098404;28;20028;-71
2022/06/09 02:59:00;;;;;;;8.68;3.72;;;16.80;99.90;;;;;;2096125;28;20412;-71
2022/06/09 03:00:00;;;;;;;13.05;3.65;;;16.80;99.90;;;;;;2095220;28;20025;-71
2022/06/09 03:01:01;;;;;;;11.65;3.60;;;16.80;99.90;;;;;;2095780;28;20028;-71
2022/06/09 03:02:02;;;;;;;12.63;3.85;;;16.80;99.90;;;;;;2094899;28;20024;-71
2022/06/09 03:03:06;;;;;;;13.23;3.78;;;16.80;99.90;;;;;;2095889;28;20094;-71
2022/06/09 03:04:07;;;;;;;7.38;3.58;;;16.80;99.90;;;;;;2097887;28;20020;-71
2022/06/09 03:05:09;;;;;;;10.98;3.45;;;16.80;99.90;;;;;;2096560;28;20275;-71
2022/06/09 03:06:10;;;;;;;12.77;3.67;;;16.80;99.90;;;;;;2098026;28;20499;-71
2022/06/09 03:07:12;;;;;;;13.63;3.88;;;16.80;99.90;;;;;;2096349;28;20393;-71
2022/06/09 03:08:12;;;;;;;12.43;3.97;;;16.80;99.90;;;;;;2094046;28;20032;-71
2022/06/09 03:09:13;;;;;;;10.18;3.47;;;16.80;99.90;;;;;;2095349;28;20020;-71
2022/06/09 03:10:14;;;;;;;11.90;4.15;;;16.80;99.90;;;;;;2096080;28;20028;-71
2022/06/09 03:11:15;;;;;;;11.40;3.80;;;16.80;99.90;;;;;;2098739;28;20027;-71
2022/06/09 03:12:15;;;;;;;9.02;3.83;;;16.80;99.90;;;;;;2098306;28;20109;-71
2022/06/09 03:13:16;;;;;;;12.85;3.83;;;16.80;99.90;;;;;;2095533;28;20024;-71
2022/06/09 03:14:16;;;;;;;8.82;4.25;;;16.80;99.90;;;;;;2097282;28;20013;-70
2022/06/09 03:15:20;;;;;;;9.40;3.40;;;16.80;99.90;;;;;;2096134;28;20103;-71
2022/06/09 03:16:21;;;;;;;11.80;4.22;;;16.80;99.90;;;;;;2095879;28;20092;-71
2022/06/09 03:17:21;;;;;;;10.98;4.15;;;16.80;99.90;;;;;;2096888;28;20072;-71
2022/06/09 03:18:22;;;;;;;12.45;4.00;;;16.80;99.90;;;;;;2093496;28;20100;-71
2022/06/09 03:19:23;;;;;;;12.82;3.97;;;16.80;99.90;;;;;;2099179;28;20060;-71
2022/06/09 03:20:27;;;;;;;11.52;4.10;;;16.80;99.90;;;;;;2098985;28;20024;-71
2022/06/09 03:21:27;;;;;;;11.82;3.78;;;16.80;99.90;;;;;;2095067;28;20062;-71
2022/06/09 03:22:29;;;;;;;12.43;4.05;;;16.80;99.90;;;;;;2097854;28;20113;-71
2022/06/09 03:23:29;;;;;;;11.82;3.45;;;16.70;99.90;;;;;;2096546;28;20384;-71
2022/06/09 03:24:30;;;;;;;12.02;3.83;;;16.80;99.90;;;;;;2092635;28;20135;-71
2022/06/09 03:25:31;;;;;;;14.75;4.47;;;16.80;99.90;;;;;;2092876;28;20128;-71
2022/06/09 03:26:32;;;;;;;15.93;3.92;;;16.80;99.90;;;;;;2097850;28;20025;-71
2022/06/09 03:27:33;;;;;;;15.05;4.57;;;16.80;99.90;;;;;;2098502;28;20025;-71
2022/06/09 03:28:34;;;;;;;11.68;4.05;;;16.70;99.90;;;;;;2097700;28;20033;-71
2022/06/09 03:29:36;;;;;;;12.93;4.32;;;16.70;99.90;;;;;;2096452;28;20050;-71
2022/06/09 03:30:36;;;;;;;14.60;3.92;;;16.70;99.90;;;;;;2097664;28;20044;-71
2022/06/09 03:31:37;;;;;;;9.57;3.40;;;16.70;99.90;;;;;;2093541;28;20036;-71
2022/06/09 03:32:37;;;;;;;16.50;4.20;;;16.70;99.90;;;;;;2095430;28;20087;-71
2022/06/09 03:33:38;;;;;;;10.90;3.50;;;16.70;99.90;;;;;;2100392;28;20028;-71
2022/06/09 03:34:39;;;;;;;10.57;3.33;;;16.70;99.90;;;;;;2094430;28;20048;-71
2022/06/09 03:35:39;;;;;;;13.02;3.72;;;16.70;99.90;;;;;;2097604;28;20059;-71
2022/06/09 03:36:43;;;;;;;11.82;4.38;;;16.70;99.90;;;;;;2096938;28;20133;-71
2022/06/09 03:37:44;;;;;;;13.52;4.25;;;16.70;99.90;;;;;;2094969;28;20419;-71
2022/06/09 03:38:44;;;;;;;11.43;4.28;;;16.70;99.90;;;;;;2096917;28;20035;-71
2022/06/09 03:39:45;;;;;;;14.50;4.95;;;16.70;99.90;;;;;;2096749;28;20021;-71
2022/06/09 03:40:46;;;;;;;16.55;4.43;;;16.70;99.90;;;;;;2095743;28;20044;-71
2022/06/09 03:41:47;;;;;;;13.48;4.43;;;16.60;99.90;;;;;;2097117;28;20090;-71
2022/06/09 03:42:48;;;;;;;13.60;4.38;;;16.70;99.90;;;;;;2095601;28;20029;-71
2022/06/09 03:43:49;;;;;;;15.95;4.78;;;16.70;99.90;;;;;;2098231;28;20035;-71
2022/06/09 03:44:49;;;;;;;12.63;4.68;;;16.70;99.90;;;;;;2093674;28;20012;-71
2022/06/09 03:45:50;;;;;;;12.13;4.68;;;16.70;99.90;;;;;;2096143;28;20024;-71
2022/06/09 03:46:51;;;;;;;19.33;5.18;;;16.70;99.90;;;;;;2094994;28;20024;-71
2022/06/09 03:47:52;;;;;;;21.52;5.68;;;16.70;99.90;;;;;;2094269;28;20372;-71
2022/06/09 03:48:53;;;;;;;12.15;4.75;;;16.70;99.90;;;;;;2098464;28;20379;-71
2022/06/09 03:49:54;;;;;;;17.48;5.72;;;16.70;99.90;;;;;;2096498;28;20016;-71
2022/06/09 03:50:54;;;;;;;13.63;5.40;;;16.70;99.90;;;;;;2096664;28;20101;-71
2022/06/09 03:51:55;;;;;;;14.48;5.82;;;16.70;99.90;;;;;;2097934;28;20391;-71
2022/06/09 03:52:56;;;;;;;13.40;5.38;;;16.70;99.90;;;;;;2093500;28;20058;-71
2022/06/09 03:53:56;;;;;;;18.55;5.70;;;16.60;99.90;;;;;;2094571;28;20016;-71
2022/06/09 03:54:57;;;;;;;13.20;5.97;;;16.60;99.90;;;;;;2096739;28;20020;-71
2022/06/09 03:55:58;;;;;;;13.60;5.35;;;16.60;99.90;;;;;;2091579;28;20070;-72
2022/06/09 03:56:58;;;;;;;17.13;5.47;;;16.60;99.90;;;;;;2096430;28;20032;-71
2022/06/09 03:57:59;;;;;;;14.20;5.22;;;16.60;99.90;;;;;;2095518;28;20028;-71
2022/06/09 03:59:00;;;;;;;17.33;6.03;;;16.70;99.90;;;;;;2095805;28;20021;-71
2022/06/09 04:00:00;;;;;;;16.13;5.75;;;16.60;99.90;;;;;;2093308;28;20021;-71
2022/06/09 04:01:01;;;;;;;14.52;6.05;;;16.70;99.90;;;;;;2095576;28;20040;-70
2022/06/09 04:02:02;;;;;;;15.57;5.90;;;16.70;99.90;;;;;;2095891;28;20025;-70
2022/06/09 04:03:04;;;;;;;14.00;6.20;;;16.60;99.90;;;;;;2094909;28;20052;-70
2022/06/09 04:04:05;;;;;;;11.93;5.68;;;16.60;99.90;;;;;;2092222;28;20078;-71
2022/06/09 04:05:06;;;;;;;16.73;6.10;;;16.60;99.90;;;;;;2098875;28;20476;-70
2022/06/09 04:06:13;;;;;;;15.10;6.10;;;16.70;99.90;;;;;;2097177;28;20036;-70
2022/06/09 04:07:13;;;;;;;11.65;5.65;;;16.60;99.90;;;;;;2095706;28;20024;-70
2022/06/09 04:08:14;;;;;;;16.00;6.05;;;16.70;99.90;;;;;;2096392;28;20051;-70
2022/06/09 04:09:15;;;;;;;16.23;7.20;;;16.60;99.90;;;;;;2096556;28;20056;-70
2022/06/09 04:10:19;;;;;;;15.95;6.97;;;16.60;99.90;;;;;;2097478;28;20032;-70
2022/06/09 04:11:22;;;;;;;14.77;6.63;;;16.70;99.90;;;;;;2096765;28;20127;-70
2022/06/09 04:12:24;;;;;;;17.95;7.57;;;16.60;99.90;;;;;;2095683;28;20032;-70
2022/06/09 04:13:25;;;;;;;19.80;7.03;;;16.70;99.90;;;;;;2097923;28;20025;-70
2022/06/09 04:14:26;;;;;;;15.15;6.60;;;16.70;99.90;;;;;;2096791;28;20491;-70
2022/06/09 04:15:26;;;;;;;15.77;6.93;;;16.70;99.90;;;;;;2094201;28;20024;-70
2022/06/09 04:16:34;;;;;;;22.70;8.27;;;16.70;99.90;;;;;;2094925;28;20823;-71
2022/06/09 04:17:35;;;;;;;17.95;8.52;;;16.70;99.90;;;;;;2094221;28;20025;-71
2022/06/09 04:18:35;;;;;;;14.65;8.30;;;16.70;99.90;;;;;;2095735;28;20096;-71
2022/06/09 04:19:36;;;;;;;21.63;8.75;;;16.60;99.90;;;;;;2095374;28;20021;-71
2022/06/09 04:20:37;;;;;;;19.58;9.98;;;16.60;99.90;;;;;;2095923;28;20027;-71
2022/06/09 04:21:38;;;;;;;15.82;8.75;;;16.60;99.90;;;;;;2094940;28;20103;-70
2022/06/09 04:22:39;;;;;;;18.77;9.93;;;16.60;99.90;;;;;;2092854;28;20035;-70
2022/06/09 04:23:39;;;;;;;19.77;9.23;;;16.60;99.90;;;;;;2108687;28;20024;-70
2022/06/09 04:24:40;;;;;;;21.83;9.65;;;16.60;99.90;;;;;;2109031;28;20024;-70
2022/06/09 04:25:41;;;;;;;15.55;9.07;;;16.60;99.90;;;;;;2094400;28;20361;-71
2022/06/09 04:26:41;;;;;;;21.80;10.15;;;16.60;99.90;;;;;;2094216;28;20048;-70
2022/06/09 04:27:42;;;;;;;18.42;10.18;;;16.70;99.90;;;;;;2095829;28;20048;-71
2022/06/09 04:28:44;;;;;;;15.80;10.75;;;16.70;99.90;;;;;;2095173;28;20020;-71
2022/06/09 04:29:44;;;;;;;22.10;11.63;;;16.70;99.90;;;;;;2094919;28;20021;-71
2022/06/09 04:30:46;;;;;;;20.85;11.05;;;16.70;99.90;;;;;;2095450;28;20024;-70
2022/06/09 04:31:47;;;;;;;19.23;11.75;;;16.70;99.90;;;;;;2092102;28;20017;-70
2022/06/09 04:32:47;;;;;;;21.75;11.50;;;16.70;99.90;;;;;;2095121;28;20025;-70
2022/06/09 04:33:50;;;;;;;18.80;10.18;;;16.70;99.90;;;;;;2094903;28;20031;-71
2022/06/09 04:34:51;;;;;;;22.70;11.52;;;16.70;99.90;;;;;;2092336;28;20074;-71
2022/06/09 04:35:52;;;;;;;22.02;11.73;;;16.70;99.90;;;;;;2095187;28;20365;-70
2022/06/09 04:36:52;;;;;;;24.58;11.68;;;16.70;99.90;;;;;;2096402;28;20082;-71
2022/06/09 04:38:03;;;;;;;20.95;11.80;;;16.70;99.90;;;;;;2096400;28;20054;-70
2022/06/09 04:39:05;;;;;;;24.27;12.75;;;16.70;99.90;;;;;;2093739;28;20024;-70
2022/06/09 04:40:06;;;;;;;20.95;11.38;;;16.60;99.90;;;;;;2093507;28;20075;-70
2022/06/09 04:41:10;;;;;;;21.63;12.68;;;16.60;99.90;;;;;;2094438;28;20361;-71
2022/06/09 04:42:10;;;;;;;22.80;13.07;;;16.60;99.90;;;;;;2095035;28;20038;-71
2022/06/09 04:43:12;;;;;;;19.33;12.38;;;16.60;99.90;;;;;;2093166;28;20025;-71
2022/06/09 04:44:13;;;;;;;22.13;12.63;;;16.60;99.90;;;;;;2093371;28;20020;-71
2022/06/09 04:45:14;;;;;;;31.33;13.38;;;16.60;99.90;;;;;;2093742;28;20028;-71
2022/06/09 04:46:20;;;;;;;26.85;12.75;;;16.60;99.90;;;;;;2092553;28;20646;-71
2022/06/09 04:47:21;;;;;;;29.40;13.95;;;16.60;99.90;;;;;;2093094;28;20119;-70
2022/06/09 04:48:22;;;;;;;25.00;12.45;;;16.60;99.90;;;;;;2095143;28;20044;-70
2022/06/09 04:49:22;;;;;;;24.83;13.05;;;16.60;99.90;;;;;;2086432;28;20049;-71
2022/06/09 04:50:26;;;;;;;23.65;11.85;;;16.70;99.90;;;;;;2095229;28;20024;-71
2022/06/09 04:51:27;;;;;;;21.15;12.63;;;16.70;99.90;;;;;;2091930;28;20074;-70
2022/06/09 04:52:28;;;;;;;19.63;12.63;;;16.70;99.90;;;;;;2093199;28;20025;-70
2022/06/09 04:53:28;;;;;;;25.33;12.40;;;16.70;99.90;;;;;;2092361;28;20028;-71
2022/06/09 04:54:29;;;;;;;27.42;12.95;;;16.70;99.90;;;;;;2095111;28;20021;-71
2022/06/09 04:55:30;;;;;;;22.33;12.25;;;16.80;99.90;;;;;;2094960;28;20048;-71
2022/06/09 04:56:30;;;;;;;21.95;12.50;;;16.70;99.90;;;;;;2094390;28;20100;-71
2022/06/09 04:57:31;;;;;;;22.83;14.70;;;16.80;99.90;;;;;;2093852;28;20078;-71
2022/06/09 04:58:32;;;;;;;25.80;13.73;;;16.70;99.90;;;;;;2095297;28;20400;-71
2022/06/09 04:59:32;;;;;;;26.30;13.38;;;16.70;99.90;;;;;;2093669;28;20028;-71
2022/06/09 05:00:33;;;;;;;24.15;12.85;;;16.70;99.90;;;;;;2096005;28;20055;-71
2022/06/09 05:01:34;;;;;;;24.20;12.95;;;16.70;99.90;;;;;;2096947;28;21164;-71
2022/06/09 05:02:34;;;;;;;24.98;13.23;;;16.70;99.90;;;;;;2091578;28;20052;-71
2022/06/09 05:03:35;;;;;;;22.95;11.93;;;16.70;99.90;;;;;;2095264;28;20021;-71
2022/06/09 05:04:35;;;;;;;22.52;12.63;;;16.80;99.90;;;;;;2093692;28;20024;-71
2022/06/09 05:05:37;;;;;;;22.98;13.40;;;16.80;99.90;;;;;;2094066;28;20497;-71
2022/06/09 05:06:38;;;;;;;22.95;12.55;;;16.80;99.90;;;;;;2097662;28;20059;-71
2022/06/09 05:07:38;;;;;;;20.70;13.63;;;16.80;99.90;;;;;;2094501;28;20571;-71
2022/06/09 05:08:40;;;;;;;23.92;12.18;;;16.80;99.90;;;;;;2094659;28;20028;-71
2022/06/09 05:09:40;;;;;;;24.10;13.40;;;16.80;99.90;;;;;;2093681;28;20029;-71
2022/06/09 05:10:43;;;;;;;24.38;14.13;;;16.80;99.90;;;;;;2096349;28;20099;-71
2022/06/09 05:11:43;;;;;;;22.88;12.93;;;16.80;99.90;;;;;;2095491;28;20441;-71
2022/06/09 05:12:44;;;;;;;24.13;12.98;;;16.80;99.90;;;;;;2092610;28;20028;-71
2022/06/09 05:13:45;;;;;;;23.35;12.48;;;16.90;99.90;;;;;;2093183;28;20511;-71
2022/06/09 05:14:45;;;;;;;23.17;13.88;;;16.90;99.90;;;;;;2096076;28;20032;-71
2022/06/09 05:15:52;;;;;;;21.90;14.23;;;16.90;99.90;;;;;;2091241;28;20019;-71
2022/06/09 05:16:53;;;;;;;22.25;13.13;;;16.90;99.90;;;;;;2093997;28;20024;-70
2022/06/09 05:17:57;;;;;;;26.73;14.88;;;16.90;99.90;;;;;;2095295;28;20020;-71
2022/06/09 05:18:58;;;;;;;20.55;12.75;;;16.90;99.90;;;;;;2095534;28;20025;-71
2022/06/09 05:19:58;;;;;;;21.85;13.32;;;16.90;99.90;;;;;;2097307;28;20435;-71
2022/06/09 05:20:59;;;;;;;23.65;13.30;;;16.90;99.90;;;;;;2096459;28;20027;-70
2022/06/09 05:22:00;;;;;;;24.10;13.68;;;16.90;99.90;;;;;;2097277;28;20032;-70
2022/06/09 05:23:01;;;;;;;23.83;13.93;;;16.90;99.90;;;;;;2095269;28;20044;-71
2022/06/09 05:24:01;;;;;;;20.50;14.82;;;16.90;99.90;;;;;;2097063;28;20519;-71
2022/06/09 05:25:02;;;;;;;22.98;14.68;;;16.90;99.90;;;;;;2096649;28;20038;-71
2022/06/09 05:26:06;;;;;;;22.52;14.75;;;16.90;99.90;;;;;;2096973;28;20025;-71